Date,TemperatureHighF,TemperatureAvgF,TemperatureLowF,DewpointHighF,DewpointAvgF,DewpointLowF,HumidityHigh,HumidityAvg,HumidityLow,PressureMaxIn,PressureMinIn,WindSpeedMaxMPH,WindSpeedAvgMPH,GustSpeedMaxMPH,PrecipitationSumIn
2012-12-1,66.0,61.7,51.0,58.0,55.7,50.0,96,80,75,30.07,29.92,0,0,0,0.00
2012-12-2,70.0,66.4,60.0,63.0,60.5,57.0,91,81,76,30.01,29.93,0,0,0,0.00
2012-12-11,40.0,35.6,27.0,30.0,26.0,23.0,86,68,57,30.15,30.09,0,0,0,0.00
2012-12-12,45.0,40.9,30.0,31.0,28.8,27.0,88,63,50,30.34,30.25,0,0,0,0.00
2012-12-13,50.0,44.7,33.0,34.0,31.0,29.0,85,60,46,30.31,30.17,0,0,0,0.00
2012-12-14,53.0,48.0,36.0,39.0,35.4,32.0,86,62,53,30.21,30.05,0,0,0,0.00
2012-12-15,59.0,56.4,52.0,53.0,51.8,50.0,96,85,80,29.69,29.57,0,0,0,0.00
2012-12-16,52.0,49.6,42.0,47.0,45.7,41.0,96,86,81,29.74,29.62,0,0,0,0.00
2012-12-17,43.0,42.7,42.0,41.0,40.7,40.0,93,93,91,29.68,29.66,0,0,0,0.00
2012-12-18,54.0,48.3,37.0,42.0,39.3,35.0,93,73,59,29.78,29.66,0,0,0,0.00
2012-12-19,45.0,42.6,37.0,40.0,37.1,34.0,87,81,77,29.99,29.82,0,0,0,0.00
2012-12-20,45.0,37.7,32.0,40.0,33.8,28.0,92,86,79,29.73,29.34,0,0,0,0.00
2012-12-21,37.0,34.1,28.0,21.0,18.8,16.0,68,53,44,30.28,30.20,0,0,0,0.00
2012-12-22,44.0,38.8,29.0,29.0,25.3,22.0,75,58,49,30.26,30.02,0,0,0,0.00
2012-12-23,50.0,45.5,34.0,34.0,32.6,30.0,87,61,53,29.95,29.85,0,0,0,0.00
2012-12-24,35.0,33.1,30.0,29.0,27.5,25.0,85,80,77,30.03,29.94,0,0,0,0.00
2012-12-25,35.0,32.9,29.0,28.0,26.8,24.0,81,78,75,30.26,30.08,0,0,0,0.00
2012-12-26,34.0,32.8,31.0,27.0,25.8,25.0,78,75,73,30.09,30.01,0,0,0,0.00
2012-12-27,36.0,34.3,32.0,27.0,26.1,25.0,77,71,67,30.21,30.10,0,0,0,0.00
2012-12-28,40.0,37.8,35.0,34.0,32.3,31.0,89,81,76,30.01,29.89,0,0,0,0.00
2012-12-29,33.0,31.2,30.0,28.0,25.3,22.0,88,78,71,30.23,30.12,0,0,0,0.00
2012-12-30,39.0,34.5,24.0,32.0,28.6,21.0,87,79,75,30.45,30.30,0,0,0,0.00
2012-12-31,37.0,36.6,35.0,35.0,34.6,33.0,93,92,91,30.16,30.09,0,0,0,0.00